sensor_id;sensor_type;location;lat;lon;timestamp;P1;durP1;ratioP1;P2;durP2;ratioP2
32918;SDS011;19280;42.646;21.150;2023-07-13T00:01:47;9.90;;;4.72;;
32918;SDS011;19280;42.646;21.150;2023-07-13T00:04:15;10.63;;;5.07;;
32918;SDS011;19280;42.646;21.150;2023-07-13T00:06:42;9.77;;;5.15;;
32918;SDS011;19280;42.646;21.150;2023-07-13T00:09:10;13.50;;;5.63;;
32918;SDS011;19280;42.646;21.150;2023-07-13T00:11:37;10.70;;;5.35;;
32918;SDS011;19280;42.646;21.150;2023-07-13T00:14:03;9.38;;;4.50;;
32918;SDS011;19280;42.646;21.150;2023-07-13T00:16:30;13.88;;;4.97;;
32918;SDS011;19280;42.646;21.150;2023-07-13T00:18:56;13.60;;;5.00;;
32918;SDS011;19280;42.646;21.150;2023-07-13T00:21:22;8.18;;;4.47;;
32918;SDS011;19280;42.646;21.150;2023-07-13T00:23:48;10.02;;;4.80;;
32918;SDS011;19280;42.646;21.150;2023-07-13T00:26:14;11.05;;;4.97;;
32918;SDS011;19280;42.646;21.150;2023-07-13T00:28:40;13.95;;;4.93;;
32918;SDS011;19280;42.646;21.150;2023-07-13T00:31:07;11.02;;;5.15;;
32918;SDS011;19280;42.646;21.150;2023-07-13T00:33:33;13.38;;;5.43;;
32918;SDS011;19280;42.646;21.150;2023-07-13T00:35:59;10.98;;;5.10;;
32918;SDS011;19280;42.646;21.150;2023-07-13T00:38:25;11.20;;;5.30;;
32918;SDS011;19280;42.646;21.150;2023-07-13T00:40:51;11.70;;;5.30;;
32918;SDS011;19280;42.646;21.150;2023-07-13T00:43:18;10.70;;;5.03;;
32918;SDS011;19280;42.646;21.150;2023-07-13T00:48:11;13.35;;;5.28;;
32918;SDS011;19280;42.646;21.150;2023-07-13T00:50:38;13.00;;;5.57;;
32918;SDS011;19280;42.646;21.150;2023-07-13T00:53:05;10.75;;;4.90;;
32918;SDS011;19280;42.646;21.150;2023-07-13T00:55:31;16.52;;;4.88;;
32918;SDS011;19280;42.646;21.150;2023-07-13T00:57:57;15.32;;;5.25;;
32918;SDS011;19280;42.646;21.150;2023-07-13T01:00:24;12.90;;;5.10;;
32918;SDS011;19280;42.646;21.150;2023-07-13T01:02:51;13.88;;;5.00;;
32918;SDS011;19280;42.646;21.150;2023-07-13T01:05:18;10.15;;;4.85;;
32918;SDS011;19280;42.646;21.150;2023-07-13T01:07:44;9.40;;;4.75;;
32918;SDS011;19280;42.646;21.150;2023-07-13T01:10:11;8.32;;;4.65;;
32918;SDS011;19280;42.646;21.150;2023-07-13T01:12:37;14.88;;;5.30;;
32918;SDS011;19280;42.646;21.150;2023-07-13T01:15:04;13.02;;;5.47;;
32918;SDS011;19280;42.646;21.150;2023-07-13T01:17:31;11.13;;;4.38;;
32918;SDS011;19280;42.646;21.150;2023-07-13T01:19:58;12.52;;;5.00;;
32918;SDS011;19280;42.646;21.150;2023-07-13T01:22:25;10.73;;;4.95;;
32918;SDS011;19280;42.646;21.150;2023-07-13T01:24:52;10.88;;;5.38;;
32918;SDS011;19280;42.646;21.150;2023-07-13T01:27:23;11.07;;;5.10;;
32918;SDS011;19280;42.646;21.150;2023-07-13T01:29:50;11.03;;;5.70;;
32918;SDS011;19280;42.646;21.150;2023-07-13T01:32:19;15.40;;;5.53;;
32918;SDS011;19280;42.646;21.150;2023-07-13T01:34:46;14.85;;;4.72;;
32918;SDS011;19280;42.646;21.150;2023-07-13T01:37:12;15.18;;;6.15;;
32918;SDS011;19280;42.646;21.150;2023-07-13T01:39:39;15.60;;;6.32;;
32918;SDS011;19280;42.646;21.150;2023-07-13T01:42:05;11.63;;;5.90;;
32918;SDS011;19280;42.646;21.150;2023-07-13T01:44:31;13.02;;;5.93;;
32918;SDS011;19280;42.646;21.150;2023-07-13T01:46:57;15.70;;;6.38;;
32918;SDS011;19280;42.646;21.150;2023-07-13T01:49:23;18.83;;;5.93;;
32918;SDS011;19280;42.646;21.150;2023-07-13T01:51:49;15.05;;;6.03;;
32918;SDS011;19280;42.646;21.150;2023-07-13T01:54:15;15.13;;;6.32;;
32918;SDS011;19280;42.646;21.150;2023-07-13T01:56:41;16.90;;;7.57;;
32918;SDS011;19280;42.646;21.150;2023-07-13T01:59:08;22.30;;;7.95;;
32918;SDS011;19280;42.646;21.150;2023-07-13T02:01:34;18.13;;;9.27;;
32918;SDS011;19280;42.646;21.150;2023-07-13T02:04:00;16.15;;;7.80;;
32918;SDS011;19280;42.646;21.150;2023-07-13T02:06:26;16.40;;;8.13;;
32918;SDS011;19280;42.646;21.150;2023-07-13T02:08:52;15.48;;;8.32;;
32918;SDS011;19280;42.646;21.150;2023-07-13T02:11:18;21.13;;;8.75;;
32918;SDS011;19280;42.646;21.150;2023-07-13T02:13:44;26.23;;;9.45;;
32918;SDS011;19280;42.646;21.150;2023-07-13T02:16:10;18.85;;;7.20;;
32918;SDS011;19280;42.646;21.150;2023-07-13T02:18:36;21.42;;;7.40;;
32918;SDS011;19280;42.646;21.150;2023-07-13T02:21:02;15.85;;;6.90;;
32918;SDS011;19280;42.646;21.150;2023-07-13T02:23:28;12.68;;;5.97;;
32918;SDS011;19280;42.646;21.150;2023-07-13T02:25:55;13.85;;;6.88;;
32918;SDS011;19280;42.646;21.150;2023-07-13T02:28:22;23.40;;;5.85;;
32918;SDS011;19280;42.646;21.150;2023-07-13T02:30:48;15.73;;;6.15;;
32918;SDS011;19280;42.646;21.150;2023-07-13T02:33:15;11.68;;;6.13;;
32918;SDS011;19280;42.646;21.150;2023-07-13T02:35:41;16.55;;;6.60;;
32918;SDS011;19280;42.646;21.150;2023-07-13T02:38:09;14.90;;;5.28;;
32918;SDS011;19280;42.646;21.150;2023-07-13T02:40:35;14.25;;;5.47;;
32918;SDS011;19280;42.646;21.150;2023-07-13T02:43:01;11.38;;;5.40;;
32918;SDS011;19280;42.646;21.150;2023-07-13T02:45:28;11.15;;;5.25;;
32918;SDS011;19280;42.646;21.150;2023-07-13T02:47:54;17.73;;;6.00;;
32918;SDS011;19280;42.646;21.150;2023-07-13T02:50:20;15.52;;;5.72;;
32918;SDS011;19280;42.646;21.150;2023-07-13T02:52:46;9.85;;;4.95;;
32918;SDS011;19280;42.646;21.150;2023-07-13T02:55:12;17.25;;;5.50;;
32918;SDS011;19280;42.646;21.150;2023-07-13T02:57:38;14.25;;;5.60;;
32918;SDS011;19280;42.646;21.150;2023-07-13T03:00:05;15.13;;;5.53;;
32918;SDS011;19280;42.646;21.150;2023-07-13T03:02:32;11.45;;;5.28;;
32918;SDS011;19280;42.646;21.150;2023-07-13T03:04:58;12.75;;;5.47;;
32918;SDS011;19280;42.646;21.150;2023-07-13T03:07:24;14.13;;;5.53;;
32918;SDS011;19280;42.646;21.150;2023-07-13T03:09:55;14.77;;;5.65;;
32918;SDS011;19280;42.646;21.150;2023-07-13T03:12:21;8.50;;;4.88;;
32918;SDS011;19280;42.646;21.150;2023-07-13T03:14:47;10.35;;;6.28;;
32918;SDS011;19280;42.646;21.150;2023-07-13T03:17:13;14.93;;;6.00;;
32918;SDS011;19280;42.646;21.150;2023-07-13T03:19:39;20.50;;;7.50;;
32918;SDS011;19280;42.646;21.150;2023-07-13T03:22:05;15.68;;;6.90;;
32918;SDS011;19280;42.646;21.150;2023-07-13T03:24:32;15.57;;;7.20;;
32918;SDS011;19280;42.646;21.150;2023-07-13T03:27:00;18.67;;;7.07;;
32918;SDS011;19280;42.646;21.150;2023-07-13T03:29:26;17.73;;;7.88;;
32918;SDS011;19280;42.646;21.150;2023-07-13T03:31:52;14.77;;;7.63;;
32918;SDS011;19280;42.646;21.150;2023-07-13T03:34:18;18.13;;;7.40;;
32918;SDS011;19280;42.646;21.150;2023-07-13T03:36:44;19.05;;;6.65;;
32918;SDS011;19280;42.646;21.150;2023-07-13T03:39:10;15.45;;;6.93;;
32918;SDS011;19280;42.646;21.150;2023-07-13T03:41:36;14.38;;;6.95;;
32918;SDS011;19280;42.646;21.150;2023-07-13T03:44:02;14.80;;;6.10;;
32918;SDS011;19280;42.646;21.150;2023-07-13T03:46:28;17.70;;;6.53;;
32918;SDS011;19280;42.646;21.150;2023-07-13T03:48:55;14.27;;;5.65;;
32918;SDS011;19280;42.646;21.150;2023-07-13T03:51:21;13.02;;;5.82;;
32918;SDS011;19280;42.646;21.150;2023-07-13T03:53:47;16.70;;;6.20;;
32918;SDS011;19280;42.646;21.150;2023-07-13T03:56:13;12.68;;;5.53;;
32918;SDS011;19280;42.646;21.150;2023-07-13T03:58:40;17.30;;;5.25;;
32918;SDS011;19280;42.646;21.150;2023-07-13T04:01:07;12.13;;;5.15;;
32918;SDS011;19280;42.646;21.150;2023-07-13T04:03:33;14.95;;;5.38;;
32918;SDS011;19280;42.646;21.150;2023-07-13T04:06:00;14.77;;;5.57;;
32918;SDS011;19280;42.646;21.150;2023-07-13T04:08:27;11.07;;;5.20;;
32918;SDS011;19280;42.646;21.150;2023-07-13T04:10:54;13.00;;;5.70;;
32918;SDS011;19280;42.646;21.150;2023-07-13T04:13:20;16.45;;;5.70;;
32918;SDS011;19280;42.646;21.150;2023-07-13T04:15:46;12.00;;;5.25;;
32918;SDS011;19280;42.646;21.150;2023-07-13T04:18:12;10.32;;;5.32;;
32918;SDS011;19280;42.646;21.150;2023-07-13T04:20:38;14.43;;;6.90;;
32918;SDS011;19280;42.646;21.150;2023-07-13T04:23:04;11.55;;;5.65;;
32918;SDS011;19280;42.646;21.150;2023-07-13T04:25:30;14.88;;;5.40;;
32918;SDS011;19280;42.646;21.150;2023-07-13T04:27:56;11.20;;;5.28;;
32918;SDS011;19280;42.646;21.150;2023-07-13T04:30:22;11.80;;;5.10;;
32918;SDS011;19280;42.646;21.150;2023-07-13T04:32:50;13.32;;;6.07;;
32918;SDS011;19280;42.646;21.150;2023-07-13T04:35:17;19.48;;;6.72;;
32918;SDS011;19280;42.646;21.150;2023-07-13T04:37:43;13.45;;;6.35;;
32918;SDS011;19280;42.646;21.150;2023-07-13T04:40:09;14.77;;;6.75;;
32918;SDS011;19280;42.646;21.150;2023-07-13T04:42:37;15.38;;;5.60;;
32918;SDS011;19280;42.646;21.150;2023-07-13T04:45:04;13.25;;;5.40;;
32918;SDS011;19280;42.646;21.150;2023-07-13T04:47:30;11.02;;;4.95;;
32918;SDS011;19280;42.646;21.150;2023-07-13T04:49:56;16.80;;;5.28;;
32918;SDS011;19280;42.646;21.150;2023-07-13T04:52:23;11.35;;;5.45;;
32918;SDS011;19280;42.646;21.150;2023-07-13T04:54:49;19.55;;;6.88;;
32918;SDS011;19280;42.646;21.150;2023-07-13T04:57:15;17.23;;;7.70;;
32918;SDS011;19280;42.646;21.150;2023-07-13T04:59:41;11.20;;;5.10;;
32918;SDS011;19280;42.646;21.150;2023-07-13T05:02:07;16.27;;;5.68;;
32918;SDS011;19280;42.646;21.150;2023-07-13T05:04:33;15.45;;;6.25;;
32918;SDS011;19280;42.646;21.150;2023-07-13T05:06:59;22.67;;;5.85;;
32918;SDS011;19280;42.646;21.150;2023-07-13T05:09:25;17.02;;;6.40;;
32918;SDS011;19280;42.646;21.150;2023-07-13T05:11:51;13.45;;;6.07;;
32918;SDS011;19280;42.646;21.150;2023-07-13T05:14:19;16.58;;;7.68;;
32918;SDS011;19280;42.646;21.150;2023-07-13T05:16:45;15.63;;;7.50;;
32918;SDS011;19280;42.646;21.150;2023-07-13T05:19:11;14.40;;;7.20;;
32918;SDS011;19280;42.646;21.150;2023-07-13T05:21:37;12.77;;;5.22;;
32918;SDS011;19280;42.646;21.150;2023-07-13T05:24:03;14.95;;;6.40;;
32918;SDS011;19280;42.646;21.150;2023-07-13T05:26:29;10.95;;;5.00;;
32918;SDS011;19280;42.646;21.150;2023-07-13T05:28:55;9.93;;;4.28;;
32918;SDS011;19280;42.646;21.150;2023-07-13T05:33:38;13.57;;;4.55;;
32918;SDS011;19280;42.646;21.150;2023-07-13T05:36:05;12.68;;;6.05;;
32918;SDS011;19280;42.646;21.150;2023-07-13T05:38:32;13.68;;;6.35;;
32918;SDS011;19280;42.646;21.150;2023-07-13T05:40:58;14.02;;;5.97;;
32918;SDS011;19280;42.646;21.150;2023-07-13T05:43:24;11.15;;;5.88;;
32918;SDS011;19280;42.646;21.150;2023-07-13T05:45:52;12.57;;;6.10;;
32918;SDS011;19280;42.646;21.150;2023-07-13T05:48:18;12.20;;;5.63;;
32918;SDS011;19280;42.646;21.150;2023-07-13T05:50:44;16.70;;;5.97;;
32918;SDS011;19280;42.646;21.150;2023-07-13T05:53:11;12.30;;;5.38;;
32918;SDS011;19280;42.646;21.150;2023-07-13T05:55:41;12.25;;;5.57;;
32918;SDS011;19280;42.646;21.150;2023-07-13T05:58:08;11.60;;;5.10;;
32918;SDS011;19280;42.646;21.150;2023-07-13T06:00:34;12.75;;;5.15;;
32918;SDS011;19280;42.646;21.150;2023-07-13T06:03:00;22.58;;;5.85;;
32918;SDS011;19280;42.646;21.150;2023-07-13T06:05:26;10.43;;;5.70;;
32918;SDS011;19280;42.646;21.150;2023-07-13T06:07:54;20.90;;;6.30;;
32918;SDS011;19280;42.646;21.150;2023-07-13T06:10:20;26.40;;;10.18;;
32918;SDS011;19280;42.646;21.150;2023-07-13T06:12:46;10.95;;;5.90;;
32918;SDS011;19280;42.646;21.150;2023-07-13T06:15:13;18.13;;;6.18;;
32918;SDS011;19280;42.646;21.150;2023-07-13T06:17:39;17.85;;;5.80;;
32918;SDS011;19280;42.646;21.150;2023-07-13T06:20:05;15.75;;;5.65;;
32918;SDS011;19280;42.646;21.150;2023-07-13T06:22:32;16.58;;;5.93;;
32918;SDS011;19280;42.646;21.150;2023-07-13T06:24:58;19.98;;;5.88;;
32918;SDS011;19280;42.646;21.150;2023-07-13T06:27:24;17.65;;;5.85;;
32918;SDS011;19280;42.646;21.150;2023-07-13T06:29:50;22.25;;;6.20;;
32918;SDS011;19280;42.646;21.150;2023-07-13T06:32:16;18.58;;;5.22;;
32918;SDS011;19280;42.646;21.150;2023-07-13T06:34:42;17.25;;;5.43;;
32918;SDS011;19280;42.646;21.150;2023-07-13T06:37:09;15.75;;;5.20;;
32918;SDS011;19280;42.646;21.150;2023-07-13T06:39:35;13.15;;;4.95;;
32918;SDS011;19280;42.646;21.150;2023-07-13T06:42:01;12.90;;;4.85;;
32918;SDS011;19280;42.646;21.150;2023-07-13T06:44:27;12.05;;;4.68;;
32918;SDS011;19280;42.646;21.150;2023-07-13T06:46:53;12.57;;;4.75;;
32918;SDS011;19280;42.646;21.150;2023-07-13T06:49:19;13.10;;;4.68;;
32918;SDS011;19280;42.646;21.150;2023-07-13T06:51:45;12.95;;;4.82;;
32918;SDS011;19280;42.646;21.150;2023-07-13T06:54:11;10.98;;;4.13;;
32918;SDS011;19280;42.646;21.150;2023-07-13T06:56:38;19.42;;;4.75;;
32918;SDS011;19280;42.646;21.150;2023-07-13T06:59:04;14.50;;;4.72;;
32918;SDS011;19280;42.646;21.150;2023-07-13T07:01:30;7.90;;;3.78;;
32918;SDS011;19280;42.646;21.150;2023-07-13T07:03:56;11.32;;;4.88;;
32918;SDS011;19280;42.646;21.150;2023-07-13T07:06:22;17.88;;;5.18;;
32918;SDS011;19280;42.646;21.150;2023-07-13T07:08:49;11.25;;;5.22;;
32918;SDS011;19280;42.646;21.150;2023-07-13T07:11:19;14.70;;;5.32;;
32918;SDS011;19280;42.646;21.150;2023-07-13T07:13:47;8.82;;;4.55;;
32918;SDS011;19280;42.646;21.150;2023-07-13T07:16:13;10.00;;;5.10;;
32918;SDS011;19280;42.646;21.150;2023-07-13T07:18:39;11.73;;;5.03;;
32918;SDS011;19280;42.646;21.150;2023-07-13T07:21:05;13.20;;;5.25;;
32918;SDS011;19280;42.646;21.150;2023-07-13T07:23:31;9.93;;;4.85;;
32918;SDS011;19280;42.646;21.150;2023-07-13T07:25:57;10.13;;;5.00;;
32918;SDS011;19280;42.646;21.150;2023-07-13T07:28:24;10.88;;;4.70;;
32918;SDS011;19280;42.646;21.150;2023-07-13T07:30:53;14.70;;;4.75;;
32918;SDS011;19280;42.646;21.150;2023-07-13T07:33:19;10.88;;;5.22;;
32918;SDS011;19280;42.646;21.150;2023-07-13T07:35:45;12.63;;;5.45;;
32918;SDS011;19280;42.646;21.150;2023-07-13T07:38:11;11.20;;;4.28;;
32918;SDS011;19280;42.646;21.150;2023-07-13T07:40:40;13.63;;;4.57;;
32918;SDS011;19280;42.646;21.150;2023-07-13T07:43:07;10.38;;;4.93;;
32918;SDS011;19280;42.646;21.150;2023-07-13T07:45:34;10.88;;;4.53;;
32918;SDS011;19280;42.646;21.150;2023-07-13T07:48:00;10.00;;;4.30;;
32918;SDS011;19280;42.646;21.150;2023-07-13T07:50:27;10.65;;;4.28;;
32918;SDS011;19280;42.646;21.150;2023-07-13T07:52:54;10.05;;;4.40;;
32918;SDS011;19280;42.646;21.150;2023-07-13T07:55:23;10.70;;;3.75;;
32918;SDS011;19280;42.646;21.150;2023-07-13T07:57:51;13.95;;;5.55;;
32918;SDS011;19280;42.646;21.150;2023-07-13T08:00:18;13.43;;;5.05;;
32918;SDS011;19280;42.646;21.150;2023-07-13T08:02:44;14.77;;;4.88;;
32918;SDS011;19280;42.646;21.150;2023-07-13T08:05:11;13.40;;;4.30;;
32918;SDS011;19280;42.646;21.150;2023-07-13T08:07:37;7.43;;;3.80;;
32918;SDS011;19280;42.646;21.150;2023-07-13T08:10:04;8.30;;;3.90;;
32918;SDS011;19280;42.646;21.150;2023-07-13T08:12:33;10.48;;;4.57;;
32918;SDS011;19280;42.646;21.150;2023-07-13T08:14:59;8.70;;;4.32;;
32918;SDS011;19280;42.646;21.150;2023-07-13T08:17:26;16.13;;;3.92;;
32918;SDS011;19280;42.646;21.150;2023-07-13T08:19:52;13.05;;;4.68;;
32918;SDS011;19280;42.646;21.150;2023-07-13T08:22:18;16.00;;;4.40;;
32918;SDS011;19280;42.646;21.150;2023-07-13T08:24:44;10.30;;;3.90;;
32918;SDS011;19280;42.646;21.150;2023-07-13T08:27:10;7.07;;;4.10;;
32918;SDS011;19280;42.646;21.150;2023-07-13T08:29:37;10.10;;;4.45;;
32918;SDS011;19280;42.646;21.150;2023-07-13T08:32:04;11.40;;;4.47;;
32918;SDS011;19280;42.646;21.150;2023-07-13T08:34:31;9.05;;;4.70;;
32918;SDS011;19280;42.646;21.150;2023-07-13T08:36:57;13.57;;;4.47;;
32918;SDS011;19280;42.646;21.150;2023-07-13T08:39:23;10.48;;;4.60;;
32918;SDS011;19280;42.646;21.150;2023-07-13T08:41:50;13.63;;;5.40;;
32918;SDS011;19280;42.646;21.150;2023-07-13T08:44:20;12.07;;;4.30;;
32918;SDS011;19280;42.646;21.150;2023-07-13T08:49:15;12.10;;;4.10;;
32918;SDS011;19280;42.646;21.150;2023-07-13T08:51:45;13.80;;;5.53;;
32918;SDS011;19280;42.646;21.150;2023-07-13T08:54:29;12.85;;;4.93;;
32918;SDS011;19280;42.646;21.150;2023-07-13T08:56:56;11.43;;;4.78;;
32918;SDS011;19280;42.646;21.150;2023-07-13T08:59:24;13.35;;;5.88;;
32918;SDS011;19280;42.646;21.150;2023-07-13T09:04:43;9.02;;;4.65;;
32918;SDS011;19280;42.646;21.150;2023-07-13T09:07:17;11.38;;;4.43;;
32918;SDS011;19280;42.646;21.150;2023-07-13T09:09:50;8.98;;;4.25;;
32918;SDS011;19280;42.646;21.150;2023-07-13T09:12:36;11.60;;;4.57;;
32918;SDS011;19280;42.646;21.150;2023-07-13T09:15:07;10.10;;;4.90;;
32918;SDS011;19280;42.646;21.150;2023-07-13T09:17:45;12.85;;;4.97;;
32918;SDS011;19280;42.646;21.150;2023-07-13T09:20:22;9.50;;;5.10;;
32918;SDS011;19280;42.646;21.150;2023-07-13T09:22:49;8.98;;;4.15;;
32918;SDS011;19280;42.646;21.150;2023-07-13T09:28:19;13.80;;;4.80;;
32918;SDS011;19280;42.646;21.150;2023-07-13T09:30:50;10.27;;;4.55;;
32918;SDS011;19280;42.646;21.150;2023-07-13T09:33:18;7.53;;;4.57;;
32918;SDS011;19280;42.646;21.150;2023-07-13T09:35:44;11.65;;;4.72;;
32918;SDS011;19280;42.646;21.150;2023-07-13T09:43:06;9.88;;;5.22;;
32918;SDS011;19280;42.646;21.150;2023-07-13T09:45:35;13.13;;;4.70;;
32918;SDS011;19280;42.646;21.150;2023-07-13T09:48:12;12.70;;;5.22;;
32918;SDS011;19280;42.646;21.150;2023-07-13T09:50:39;11.30;;;4.63;;
32918;SDS011;19280;42.646;21.150;2023-07-13T09:53:11;14.70;;;4.93;;
32918;SDS011;19280;42.646;21.150;2023-07-13T09:55:38;8.82;;;4.63;;
32918;SDS011;19280;42.646;21.150;2023-07-13T09:58:09;13.02;;;5.63;;
32918;SDS011;19280;42.646;21.150;2023-07-13T10:00:36;15.70;;;5.63;;
32918;SDS011;19280;42.646;21.150;2023-07-13T10:03:14;10.68;;;5.20;;
32918;SDS011;19280;42.646;21.150;2023-07-13T10:05:42;8.75;;;5.38;;
32918;SDS011;19280;42.646;21.150;2023-07-13T10:08:16;12.05;;;5.13;;
32918;SDS011;19280;42.646;21.150;2023-07-13T10:10:43;11.90;;;5.43;;
32918;SDS011;19280;42.646;21.150;2023-07-13T10:13:26;12.50;;;5.63;;
32918;SDS011;19280;42.646;21.150;2023-07-13T10:15:53;12.95;;;5.32;;
32918;SDS011;19280;42.646;21.150;2023-07-13T10:18:20;8.77;;;4.90;;
32918;SDS011;19280;42.646;21.150;2023-07-13T10:20:46;9.40;;;5.75;;
32918;SDS011;19280;42.646;21.150;2023-07-13T10:23:15;13.00;;;5.88;;
32918;SDS011;19280;42.646;21.150;2023-07-13T10:25:45;9.43;;;5.43;;
32918;SDS011;19280;42.646;21.150;2023-07-13T10:28:16;10.95;;;5.70;;
32918;SDS011;19280;42.646;21.150;2023-07-13T10:30:46;8.32;;;5.15;;
32918;SDS011;19280;42.646;21.150;2023-07-13T10:33:13;11.85;;;5.22;;
32918;SDS011;19280;42.646;21.150;2023-07-13T10:35:40;16.45;;;6.63;;
32918;SDS011;19280;42.646;21.150;2023-07-13T10:38:11;12.63;;;5.70;;
32918;SDS011;19280;42.646;21.150;2023-07-13T10:40:39;10.55;;;5.20;;
32918;SDS011;19280;42.646;21.150;2023-07-13T10:43:27;12.77;;;5.78;;
32918;SDS011;19280;42.646;21.150;2023-07-13T10:45:54;10.82;;;5.85;;
32918;SDS011;19280;42.646;21.150;2023-07-13T10:48:21;9.55;;;5.00;;
32918;SDS011;19280;42.646;21.150;2023-07-13T10:50:49;9.43;;;6.05;;
32918;SDS011;19280;42.646;21.150;2023-07-13T10:53:28;11.20;;;6.13;;
32918;SDS011;19280;42.646;21.150;2023-07-13T10:55:56;14.68;;;5.50;;
32918;SDS011;19280;42.646;21.150;2023-07-13T11:01:08;8.60;;;5.88;;
32918;SDS011;19280;42.646;21.150;2023-07-13T11:03:46;9.45;;;6.25;;
32918;SDS011;19280;42.646;21.150;2023-07-13T11:06:30;11.50;;;6.68;;
32918;SDS011;19280;42.646;21.150;2023-07-13T11:11:46;14.68;;;6.43;;
32918;SDS011;19280;42.646;21.150;2023-07-13T11:16:58;10.82;;;6.25;;
32918;SDS011;19280;42.646;21.150;2023-07-13T11:19:26;9.82;;;5.95;;
32918;SDS011;19280;42.646;21.150;2023-07-13T11:29:39;10.32;;;6.68;;
32918;SDS011;19280;42.646;21.150;2023-07-13T11:32:22;11.82;;;6.38;;
32918;SDS011;19280;42.646;21.150;2023-07-13T11:34:48;10.63;;;6.30;;
32918;SDS011;19280;42.646;21.150;2023-07-13T11:37:16;13.23;;;6.70;;
32918;SDS011;19280;42.646;21.150;2023-07-13T11:39:43;9.80;;;6.15;;
32918;SDS011;19280;42.646;21.150;2023-07-13T11:42:12;12.73;;;5.70;;
32918;SDS011;19280;42.646;21.150;2023-07-13T11:44:43;10.50;;;5.75;;
32918;SDS011;19280;42.646;21.150;2023-07-13T11:49:45;11.35;;;5.88;;
32918;SDS011;19280;42.646;21.150;2023-07-13T11:52:14;15.38;;;6.07;;
32918;SDS011;19280;42.646;21.150;2023-07-13T11:54:51;10.93;;;5.13;;
32918;SDS011;19280;42.646;21.150;2023-07-13T12:00:11;8.80;;;5.30;;
32918;SDS011;19280;42.646;21.150;2023-07-13T12:02:41;8.90;;;5.75;;
32918;SDS011;19280;42.646;21.150;2023-07-13T12:05:13;11.20;;;6.00;;
32918;SDS011;19280;42.646;21.150;2023-07-13T12:07:39;9.27;;;5.90;;
32918;SDS011;19280;42.646;21.150;2023-07-13T12:12:35;13.18;;;6.18;;
32918;SDS011;19280;42.646;21.150;2023-07-13T12:15:01;9.07;;;5.93;;
32918;SDS011;19280;42.646;21.150;2023-07-13T12:17:30;7.80;;;5.63;;
32918;SDS011;19280;42.646;21.150;2023-07-13T12:19:56;9.85;;;6.47;;
32918;SDS011;19280;42.646;21.150;2023-07-13T12:22:23;10.60;;;5.78;;
32918;SDS011;19280;42.646;21.150;2023-07-13T12:24:49;14.45;;;5.90;;
32918;SDS011;19280;42.646;21.150;2023-07-13T12:27:20;10.13;;;5.85;;
32918;SDS011;19280;42.646;21.150;2023-07-13T12:29:51;11.95;;;6.88;;
32918;SDS011;19280;42.646;21.150;2023-07-13T12:32:19;12.63;;;7.03;;
32918;SDS011;19280;42.646;21.150;2023-07-13T12:34:52;14.15;;;7.57;;
32918;SDS011;19280;42.646;21.150;2023-07-13T12:37:19;14.13;;;7.80;;
32918;SDS011;19280;42.646;21.150;2023-07-13T12:39:45;16.63;;;7.60;;
32918;SDS011;19280;42.646;21.150;2023-07-13T12:42:29;14.07;;;7.60;;
32918;SDS011;19280;42.646;21.150;2023-07-13T12:47:23;11.05;;;7.45;;
32918;SDS011;19280;42.646;21.150;2023-07-13T12:49:50;12.63;;;6.80;;
32918;SDS011;19280;42.646;21.150;2023-07-13T12:52:36;13.13;;;7.05;;
32918;SDS011;19280;42.646;21.150;2023-07-13T12:55:07;15.68;;;8.15;;
32918;SDS011;19280;42.646;21.150;2023-07-13T12:57:45;20.27;;;7.50;;
32918;SDS011;19280;42.646;21.150;2023-07-13T13:00:33;12.75;;;6.68;;
32918;SDS011;19280;42.646;21.150;2023-07-13T13:08:30;9.43;;;7.05;;
32918;SDS011;19280;42.646;21.150;2023-07-13T13:10:56;16.38;;;7.30;;
32918;SDS011;19280;42.646;21.150;2023-07-13T13:13:22;13.23;;;7.70;;
32918;SDS011;19280;42.646;21.150;2023-07-13T13:15:49;10.45;;;6.65;;
32918;SDS011;19280;42.646;21.150;2023-07-13T13:18:19;9.52;;;6.78;;
32918;SDS011;19280;42.646;21.150;2023-07-13T13:20:45;15.82;;;8.18;;
32918;SDS011;19280;42.646;21.150;2023-07-13T13:23:15;11.02;;;7.95;;
32918;SDS011;19280;42.646;21.150;2023-07-13T13:25:43;20.05;;;7.60;;
32918;SDS011;19280;42.646;21.150;2023-07-13T13:28:19;14.23;;;8.07;;
32918;SDS011;19280;42.646;21.150;2023-07-13T13:30:49;12.30;;;8.68;;
32918;SDS011;19280;42.646;21.150;2023-07-13T13:33:16;10.25;;;6.40;;
32918;SDS011;19280;42.646;21.150;2023-07-13T13:35:43;13.52;;;7.18;;
32918;SDS011;19280;42.646;21.150;2023-07-13T13:38:16;14.63;;;9.15;;
32918;SDS011;19280;42.646;21.150;2023-07-13T13:40:43;11.43;;;7.82;;
32918;SDS011;19280;42.646;21.150;2023-07-13T13:43:23;15.48;;;7.70;;
32918;SDS011;19280;42.646;21.150;2023-07-13T13:45:51;12.80;;;7.35;;
32918;SDS011;19280;42.646;21.150;2023-07-13T13:48:19;14.68;;;8.07;;
32918;SDS011;19280;42.646;21.150;2023-07-13T13:50:47;14.00;;;7.50;;
32918;SDS011;19280;42.646;21.150;2023-07-13T13:53:13;14.95;;;7.30;;
32918;SDS011;19280;42.646;21.150;2023-07-13T13:55:40;12.45;;;7.40;;
32918;SDS011;19280;42.646;21.150;2023-07-13T13:58:10;13.20;;;7.53;;
32918;SDS011;19280;42.646;21.150;2023-07-13T14:00:37;11.65;;;6.63;;
32918;SDS011;19280;42.646;21.150;2023-07-13T14:03:03;14.68;;;7.43;;
32918;SDS011;19280;42.646;21.150;2023-07-13T14:05:30;12.40;;;7.15;;
32918;SDS011;19280;42.646;21.150;2023-07-13T14:07:56;12.38;;;6.85;;
32918;SDS011;19280;42.646;21.150;2023-07-13T14:10:23;12.82;;;7.90;;
32918;SDS011;19280;42.646;21.150;2023-07-13T14:12:52;11.63;;;7.25;;
32918;SDS011;19280;42.646;21.150;2023-07-13T14:15:28;10.30;;;7.15;;
32918;SDS011;19280;42.646;21.150;2023-07-13T14:17:56;16.33;;;7.57;;
32918;SDS011;19280;42.646;21.150;2023-07-13T14:20:23;13.45;;;6.93;;
32918;SDS011;19280;42.646;21.150;2023-07-13T14:22:50;12.82;;;7.80;;
32918;SDS011;19280;42.646;21.150;2023-07-13T14:25:18;11.98;;;7.35;;
32918;SDS011;19280;42.646;21.150;2023-07-13T14:27:44;14.02;;;7.03;;
32918;SDS011;19280;42.646;21.150;2023-07-13T14:30:14;10.18;;;7.00;;
32918;SDS011;19280;42.646;21.150;2023-07-13T14:32:40;10.60;;;7.22;;
32918;SDS011;19280;42.646;21.150;2023-07-13T14:35:07;14.80;;;7.15;;
32918;SDS011;19280;42.646;21.150;2023-07-13T14:37:34;11.05;;;6.63;;
32918;SDS011;19280;42.646;21.150;2023-07-13T14:40:01;9.23;;;6.88;;
32918;SDS011;19280;42.646;21.150;2023-07-13T14:42:27;10.43;;;6.93;;
32918;SDS011;19280;42.646;21.150;2023-07-13T14:44:53;12.40;;;7.38;;
32918;SDS011;19280;42.646;21.150;2023-07-13T14:47:19;13.73;;;6.78;;
32918;SDS011;19280;42.646;21.150;2023-07-13T14:49:45;8.95;;;6.85;;
32918;SDS011;19280;42.646;21.150;2023-07-13T14:54:39;13.15;;;7.10;;
32918;SDS011;19280;42.646;21.150;2023-07-13T14:57:13;9.98;;;6.65;;
32918;SDS011;19280;42.646;21.150;2023-07-13T14:59:40;12.63;;;7.60;;
32918;SDS011;19280;42.646;21.150;2023-07-13T15:04:44;11.30;;;6.85;;
32918;SDS011;19280;42.646;21.150;2023-07-13T15:07:10;14.75;;;6.53;;
32918;SDS011;19280;42.646;21.150;2023-07-13T15:09:38;16.02;;;6.65;;
32918;SDS011;19280;42.646;21.150;2023-07-13T15:12:04;12.50;;;6.63;;
32918;SDS011;19280;42.646;21.150;2023-07-13T15:14:30;13.48;;;6.57;;
32918;SDS011;19280;42.646;21.150;2023-07-13T15:16:57;11.18;;;7.13;;
32918;SDS011;19280;42.646;21.150;2023-07-13T15:19:23;13.50;;;6.55;;
32918;SDS011;19280;42.646;21.150;2023-07-13T15:21:51;12.82;;;7.22;;